Time;durP1;ratioP1;P1;durP2;ratioP2;P2;SDS_P1;SDS_P2;PMS_P1;PMS_P2;Temp;Humidity;BMP_temperature;BMP_pressure;BME280_temperature;BME280_humidity;BME280_pressure;Samples;Min_cycle;Max_cycle;Signal;HPM_P1;HPM_P2
2022/05/04 00:00:49;;;;;;;0.60;0.60;;;8.20;99.90;;;;;;5053254;28;20204;-67
2022/05/04 00:03:15;;;;;;;0.30;0.30;;;8.20;99.90;;;;;;5053360;28;20196;-66
2022/05/04 00:05:41;;;;;;;0.47;0.47;;;8.20;99.90;;;;;;5053284;28;20657;-67
2022/05/04 00:08:07;;;;;;;0.40;0.40;;;8.20;99.90;;;;;;5053379;28;20404;-67
2022/05/04 00:10:34;;;;;;;0.30;0.30;;;8.10;99.90;;;;;;5053071;28;20196;-67
2022/05/04 00:13:01;;;;;;;0.40;0.40;;;8.10;99.90;;;;;;5053238;28;20183;-68
2022/05/04 00:15:27;;;;;;;0.30;0.30;;;8.10;99.90;;;;;;5053471;28;20177;-67
2022/05/04 00:17:53;;;;;;;0.32;0.32;;;8.00;99.90;;;;;;5053382;28;20183;-68
2022/05/04 00:20:19;;;;;;;0.30;0.30;;;8.00;99.90;;;;;;5052996;28;20177;-67
2022/05/04 00:22:45;;;;;;;0.30;0.30;;;7.90;99.90;;;;;;5053063;28;20246;-67
2022/05/04 00:25:11;;;;;;;0.40;0.40;;;8.00;99.90;;;;;;5053188;28;20450;-67
2022/05/04 00:27:37;;;;;;;0.40;0.40;;;7.90;99.90;;;;;;5053249;28;20204;-67
2022/05/04 00:30:05;;;;;;;0.30;0.30;;;7.90;99.90;;;;;;5053135;28;20580;-67
2022/05/04 00:32:30;;;;;;;0.30;0.30;;;7.90;99.90;;;;;;5052992;28;20586;-68
2022/05/04 00:34:57;;;;;;;0.30;0.30;;;7.90;99.90;;;;;;5053117;28;20173;-67
2022/05/04 00:37:23;;;;;;;0.30;0.30;;;7.90;99.90;;;;;;5051820;28;20407;-67
2022/05/04 00:39:49;;;;;;;0.30;0.30;;;7.90;99.90;;;;;;5052882;28;20261;-67
2022/05/04 00:42:19;;;;;;;0.30;0.30;;;7.90;99.90;;;;;;5053030;28;20784;-68
2022/05/04 00:44:47;;;;;;;0.30;0.30;;;7.90;99.90;;;;;;5053068;28;20180;-67
2022/05/04 00:47:13;;;;;;;0.30;0.30;;;7.90;99.90;;;;;;5053364;28;20183;-68
2022/05/04 00:49:40;;;;;;;0.30;0.30;;;7.90;99.90;;;;;;5052969;28;20646;-67
2022/05/04 00:52:07;;;;;;;0.32;0.32;;;7.80;99.90;;;;;;5054716;28;20201;-66
2022/05/04 00:54:34;;;;;;;0.30;0.30;;;7.70;99.90;;;;;;5056850;28;20635;-66
2022/05/04 00:57:01;;;;;;;0.30;0.30;;;7.80;99.90;;;;;;5056872;28;20203;-67
2022/05/04 00:59:29;;;;;;;0.30;0.30;;;7.70;99.90;;;;;;5056815;28;20174;-67
2022/05/04 01:01:55;;;;;;;0.40;0.40;;;7.70;99.90;;;;;;5056343;28;20204;-67
2022/05/04 01:04:21;;;;;;;0.30;0.30;;;7.80;99.90;;;;;;5056553;28;20239;-67
2022/05/04 01:06:46;;;;;;;0.33;0.33;;;7.70;99.90;;;;;;5056491;28;20203;-68
2022/05/04 01:09:12;;;;;;;0.30;0.30;;;7.70;99.90;;;;;;5056669;28;20582;-67
2022/05/04 01:11:38;;;;;;;0.47;0.47;;;7.70;99.90;;;;;;5056364;28;20189;-67
2022/05/04 01:14:08;;;;;;;0.30;0.30;;;7.70;99.90;;;;;;5056298;28;20415;-67
2022/05/04 01:16:35;;;;;;;0.40;0.40;;;7.70;99.90;;;;;;5056780;28;20407;-67
2022/05/04 01:19:01;;;;;;;0.40;0.40;;;7.70;99.90;;;;;;5055045;28;20706;-67
2022/05/04 01:21:27;;;;;;;0.30;0.30;;;7.60;99.90;;;;;;5055926;28;20213;-67
2022/05/04 01:27:14;;;;;;;0.30;0.30;;;7.70;99.90;;;;;;5056445;28;20965;-68
2022/05/04 01:29:40;;;;;;;0.30;0.30;;;7.50;99.90;;;;;;5056120;28;20188;-68
2022/05/04 01:32:06;;;;;;;0.30;0.30;;;7.60;99.90;;;;;;5055800;28;20191;-67
2022/05/04 01:34:32;;;;;;;0.30;0.30;;;7.70;99.90;;;;;;5056098;28;20186;-67
2022/05/04 01:36:57;;;;;;;0.30;0.30;;;7.60;99.90;;;;;;5056124;28;20264;-67
2022/05/04 01:39:23;;;;;;;0.30;0.30;;;7.70;99.90;;;;;;5055910;28;20172;-67
2022/05/04 01:42:05;;;;;;;0.30;0.30;;;7.80;99.90;;;;;;5054413;28;20191;-68
2022/05/04 01:44:34;;;;;;;0.30;0.30;;;7.80;99.90;;;;;;5056052;28;20165;-68
2022/05/04 01:47:00;;;;;;;0.30;0.30;;;7.70;99.90;;;;;;5055848;28;20204;-67
2022/05/04 01:49:26;;;;;;;0.35;0.35;;;7.70;99.90;;;;;;5055622;28;20542;-68
2022/05/04 01:51:52;;;;;;;0.40;0.40;;;7.70;99.90;;;;;;5055376;28;20188;-67
2022/05/04 01:54:17;;;;;;;0.30;0.30;;;7.60;99.90;;;;;;5055693;28;20818;-68
2022/05/04 01:56:43;;;;;;;0.30;0.30;;;7.60;99.90;;;;;;5055808;28;20177;-68
2022/05/04 01:59:09;;;;;;;0.40;0.40;;;7.60;99.90;;;;;;5055670;28;20255;-67
2022/05/04 02:01:35;;;;;;;0.30;0.30;;;7.60;99.90;;;;;;5055269;28;20204;-67
2022/05/04 02:04:02;;;;;;;0.30;0.30;;;7.60;99.90;;;;;;5054148;28;20187;-67
2022/05/04 02:06:28;;;;;;;0.30;0.30;;;7.50;99.90;;;;;;5055340;28;20226;-68
2022/05/04 02:08:53;;;;;;;0.30;0.30;;;7.50;99.90;;;;;;5055390;28;20243;-67
2022/05/04 02:11:19;;;;;;;0.30;0.30;;;7.60;99.90;;;;;;5055090;28;20602;-68
2022/05/04 02:13:45;;;;;;;0.30;0.30;;;7.60;99.90;;;;;;5055369;28;20168;-67
2022/05/04 02:16:11;;;;;;;0.30;0.30;;;7.60;99.90;;;;;;5055209;28;20689;-67
2022/05/04 02:18:36;;;;;;;0.30;0.30;;;7.70;99.90;;;;;;5055197;28;20661;-66
2022/05/04 02:21:02;;;;;;;0.30;0.30;;;7.70;99.90;;;;;;5055129;28;20209;-67
2022/05/04 02:23:28;;;;;;;0.30;0.30;;;7.70;99.90;;;;;;5055350;28;20188;-67
2022/05/04 02:25:53;;;;;;;1.03;1.03;;;7.70;99.90;;;;;;5055194;28;20201;-67
2022/05/04 02:28:19;;;;;;;0.30;0.30;;;7.70;99.90;;;;;;5055063;28;20205;-68
2022/05/04 02:30:45;;;;;;;1.13;1.13;;;7.60;99.90;;;;;;5054772;28;20199;-67
2022/05/04 02:33:11;;;;;;;0.30;0.30;;;7.60;99.90;;;;;;5054849;28;20176;-67
2022/05/04 02:38:21;;;;;;;0.30;0.30;;;7.50;99.90;;;;;;5055322;28;20242;-68
2022/05/04 02:40:48;;;;;;;0.30;0.30;;;7.50;99.90;;;;;;5054552;28;20192;-68
2022/05/04 02:43:14;;;;;;;0.30;0.30;;;7.50;99.90;;;;;;5054747;28;20183;-67
2022/05/04 02:45:40;;;;;;;0.30;0.30;;;7.50;99.90;;;;;;5054521;28;20196;-68
2022/05/04 02:48:07;;;;;;;0.50;0.50;;;7.50;99.90;;;;;;5055088;28;20694;-67
2022/05/04 02:50:32;;;;;;;0.63;0.63;;;7.40;99.90;;;;;;5054740;28;20212;-68
2022/05/04 02:52:58;;;;;;;0.30;0.30;;;7.40;99.90;;;;;;5054837;28;20593;-67
2022/05/04 02:55:24;;;;;;;0.40;0.40;;;7.40;99.90;;;;;;5054804;28;20176;-67
2022/05/04 02:57:49;;;;;;;0.40;0.40;;;7.40;99.90;;;;;;5054601;28;20187;-68
2022/05/04 03:00:15;;;;;;;0.30;0.30;;;7.40;99.90;;;;;;5054041;28;20168;-68
2022/05/04 03:02:41;;;;;;;0.30;0.30;;;7.40;99.90;;;;;;5053057;28;20211;-68
2022/05/04 03:05:09;;;;;;;0.30;0.30;;;7.40;99.90;;;;;;5054229;28;20452;-68
2022/05/04 03:07:35;;;;;;;0.30;0.30;;;7.40;99.90;;;;;;5054217;28;20179;-67
2022/05/04 03:10:01;;;;;;;0.30;0.30;;;7.30;99.90;;;;;;5054362;28;20164;-67
2022/05/04 03:12:27;;;;;;;0.50;0.50;;;7.30;99.90;;;;;;5054105;28;20189;-68
2022/05/04 03:14:53;;;;;;;0.30;0.30;;;7.40;99.90;;;;;;5054002;28;20622;-68
2022/05/04 03:17:19;;;;;;;0.30;0.30;;;7.30;99.90;;;;;;5054525;28;20173;-66
2022/05/04 03:19:45;;;;;;;0.30;0.30;;;7.20;99.90;;;;;;5054288;28;20400;-67
2022/05/04 03:22:10;;;;;;;0.30;0.30;;;7.30;99.90;;;;;;5053841;28;20817;-66
2022/05/04 03:24:36;;;;;;;0.40;0.40;;;7.20;99.90;;;;;;5054403;28;20175;-67
2022/05/04 03:27:02;;;;;;;0.30;0.30;;;7.30;99.90;;;;;;5053994;28;20200;-68
2022/05/04 03:29:28;;;;;;;0.32;0.32;;;7.30;99.90;;;;;;5054048;28;20579;-68
2022/05/04 03:31:53;;;;;;;0.30;0.30;;;7.10;99.90;;;;;;5053600;28;20192;-66
2022/05/04 03:34:20;;;;;;;0.40;0.40;;;7.20;99.90;;;;;;5053872;28;20174;-67
2022/05/04 03:36:46;;;;;;;0.40;0.40;;;7.20;99.90;;;;;;5053797;28;20172;-68
2022/05/04 03:39:11;;;;;;;0.40;0.40;;;7.10;99.90;;;;;;5053804;28;20184;-67
2022/05/04 03:41:38;;;;;;;0.30;0.30;;;7.10;99.90;;;;;;5052129;28;20206;-67
2022/05/04 03:44:05;;;;;;;0.30;0.30;;;7.10;99.90;;;;;;5053709;28;20199;-67
2022/05/04 03:46:47;;;;;;;0.40;0.40;;;7.10;99.90;;;;;;5053775;28;20199;-67
2022/05/04 03:49:14;;;;;;;0.40;0.40;;;7.00;99.90;;;;;;5053970;28;20169;-67
2022/05/04 03:51:40;;;;;;;0.40;0.40;;;7.00;99.90;;;;;;5053405;28;20682;-67
2022/05/04 03:54:07;;;;;;;0.60;0.60;;;7.10;99.90;;;;;;5053500;28;20760;-67
2022/05/04 03:56:33;;;;;;;0.30;0.30;;;7.10;99.90;;;;;;5053617;28;20211;-67
2022/05/04 03:58:59;;;;;;;0.30;0.30;;;7.10;99.90;;;;;;5053843;28;20247;-67
2022/05/04 04:01:25;;;;;;;0.30;0.30;;;7.10;99.90;;;;;;5053313;28;20570;-67
2022/05/04 04:03:51;;;;;;;0.60;0.60;;;7.10;99.90;;;;;;5053474;28;20167;-67
2022/05/04 04:06:16;;;;;;;0.30;0.30;;;7.10;99.90;;;;;;5053255;28;20203;-68
2022/05/04 04:08:42;;;;;;;0.30;0.30;;;7.20;99.90;;;;;;5052226;28;20176;-67
2022/05/04 04:11:08;;;;;;;0.30;0.30;;;7.30;99.90;;;;;;5053180;28;20188;-67
2022/05/04 04:13:34;;;;;;;0.30;0.30;;;7.30;99.90;;;;;;5053809;28;20176;-67
2022/05/04 04:16:00;;;;;;;0.30;0.30;;;7.30;99.90;;;;;;5053273;28;20194;-68
2022/05/04 04:18:26;;;;;;;0.30;0.30;;;7.30;99.90;;;;;;5053323;28;20642;-67
2022/05/04 04:23:38;;;;;;;0.52;0.52;;;7.40;99.90;;;;;;5053493;28;20217;-68
2022/05/04 04:26:05;;;;;;;0.30;0.30;;;7.40;99.90;;;;;;5053548;28;20211;-68
2022/05/04 04:28:35;;;;;;;0.30;0.30;;;7.40;99.90;;;;;;5057260;28;20198;-67
2022/05/04 04:31:02;;;;;;;0.30;0.30;;;7.30;99.90;;;;;;5057100;28;20188;-66
2022/05/04 04:33:29;;;;;;;0.45;0.45;;;7.30;99.90;;;;;;5057188;28;20168;-68
2022/05/04 04:35:58;;;;;;;0.30;0.30;;;7.30;99.90;;;;;;5057333;28;20180;-67
2022/05/04 04:38:24;;;;;;;0.30;0.30;;;7.40;99.90;;;;;;5057011;28;20596;-68
2022/05/04 04:40:50;;;;;;;0.30;0.30;;;7.40;99.90;;;;;;5056945;28;20239;-67
2022/05/04 04:43:16;;;;;;;0.30;0.30;;;7.50;99.90;;;;;;5057195;28;20212;-66
2022/05/04 04:45:44;;;;;;;0.40;0.40;;;7.50;99.90;;;;;;5056999;28;20442;-67
2022/05/04 04:48:10;;;;;;;0.30;0.30;;;7.50;99.90;;;;;;5056919;28;20477;-67
2022/05/04 04:50:36;;;;;;;0.30;0.30;;;7.70;99.90;;;;;;5056684;28;20251;-68
2022/05/04 04:53:02;;;;;;;0.30;0.30;;;7.80;99.90;;;;;;5056800;28;20167;-67
2022/05/04 04:55:28;;;;;;;0.32;0.32;;;7.80;99.90;;;;;;5055521;28;20219;-67
2022/05/04 04:57:54;;;;;;;0.30;0.30;;;7.90;99.90;;;;;;5056753;28;20263;-68
2022/05/04 05:00:20;;;;;;;0.30;0.30;;;7.90;99.90;;;;;;5056559;28;20247;-67
2022/05/04 05:02:47;;;;;;;0.30;0.30;;;8.20;99.90;;;;;;5056664;28;20261;-68
2022/05/04 05:05:12;;;;;;;0.40;0.40;;;8.80;99.90;;;;;;5056698;28;20608;-67
2022/05/04 05:07:38;;;;;;;0.30;0.30;;;9.30;99.90;;;;;;5056507;28;20163;-68
2022/05/04 05:10:08;;;;;;;0.30;0.30;;;9.70;99.90;;;;;;5056161;28;20162;-67
2022/05/04 05:12:33;;;;;;;0.30;0.30;;;10.20;99.90;;;;;;5056352;28;20853;-68
2022/05/04 05:17:43;;;;;;;0.30;0.30;;;11.10;99.90;;;;;;5056365;28;20216;-67
2022/05/04 05:20:10;;;;;;;0.30;0.30;;;11.50;99.90;;;;;;5056122;28;20178;-68
2022/05/04 05:22:36;;;;;;;0.30;0.30;;;12.00;99.80;;;;;;5056106;28;20476;-68
2022/05/04 05:25:02;;;;;;;0.30;0.30;;;12.30;99.30;;;;;;5056058;28;20438;-67
2022/05/04 05:27:32;;;;;;;0.30;0.30;;;12.80;99.70;;;;;;5056296;28;20416;-68
2022/05/04 05:29:58;;;;;;;0.30;0.30;;;13.50;98.90;;;;;;5055907;28;20449;-68
2022/05/04 05:32:24;;;;;;;0.40;0.40;;;14.40;98.30;;;;;;5055911;28;20572;-68
2022/05/04 05:34:50;;;;;;;0.30;0.30;;;15.20;96.20;;;;;;5056217;28;20814;-68
2022/05/04 05:37:16;;;;;;;0.30;0.30;;;15.70;92.80;;;;;;5055936;28;20442;-67
2022/05/04 05:39:42;;;;;;;0.40;0.40;;;16.30;91.90;;;;;;5056287;28;20436;-68
2022/05/04 05:42:08;;;;;;;0.30;0.30;;;16.80;89.70;;;;;;5055675;28;20960;-68
2022/05/04 05:44:34;;;;;;;0.50;0.40;;;17.40;88.80;;;;;;5055803;28;20903;-68
2022/05/04 05:47:01;;;;;;;0.60;0.60;;;17.90;87.10;;;;;;5055923;28;20452;-68
2022/05/04 05:49:27;;;;;;;0.30;0.30;;;18.50;84.20;;;;;;5056003;28;20166;-68
2022/05/04 05:51:53;;;;;;;0.30;0.30;;;19.10;82.60;;;;;;5055415;28;20974;-68
2022/05/04 05:54:18;;;;;;;0.47;0.47;;;19.80;80.20;;;;;;5055740;28;20398;-69
2022/05/04 05:56:44;;;;;;;0.70;0.70;;;20.50;76.70;;;;;;5055494;28;20579;-68
2022/05/04 05:59:11;;;;;;;0.30;0.30;;;21.30;73.60;;;;;;5055465;28;20166;-68
2022/05/04 06:01:37;;;;;;;0.40;0.40;;;22.00;68.30;;;;;;5054921;28;20182;-68
2022/05/04 06:04:03;;;;;;;0.40;0.40;;;23.00;68.60;;;;;;5053051;28;20892;-69
2022/05/04 06:06:28;;;;;;;0.40;0.40;;;24.10;64.20;;;;;;5055521;28;20221;-68
2022/05/04 06:08:54;;;;;;;0.40;0.40;;;25.10;59.40;;;;;;5055440;28;20454;-68
2022/05/04 06:11:19;;;;;;;0.30;0.30;;;25.90;55.10;;;;;;5052580;28;20236;-69
2022/05/04 06:13:45;;;;;;;0.30;0.30;;;26.10;53.50;;;;;;5055230;28;20219;-69
2022/05/04 06:16:11;;;;;;;0.30;0.30;;;25.30;53.20;;;;;;5055208;28;20225;-69
2022/05/04 06:18:36;;;;;;;0.37;0.37;;;24.50;54.70;;;;;;5055174;28;20181;-69
2022/05/04 06:21:02;;;;;;;0.30;0.30;;;24.00;55.00;;;;;;5054811;28;20236;-68
2022/05/04 06:23:28;;;;;;;0.30;0.30;;;23.30;55.90;;;;;;5052744;28;20257;-69
2022/05/04 06:25:53;;;;;;;0.50;0.50;;;22.60;57.70;;;;;;5052242;28;20206;-69
2022/05/04 06:28:19;;;;;;;0.30;0.30;;;21.80;58.90;;;;;;5052619;28;20206;-69
2022/05/04 06:36:12;;;;;;;0.87;0.87;;;19.70;64.10;;;;;;5054592;28;20517;-70
2022/05/04 06:38:38;;;;;;;0.30;0.30;;;19.20;66.00;;;;;;5054752;28;20422;-69
2022/05/04 06:41:05;;;;;;;0.83;0.73;;;19.10;67.50;;;;;;5054666;28;20232;-69
2022/05/04 06:43:32;;;;;;;0.30;0.30;;;19.50;69.00;;;;;;5054972;28;20306;-69
2022/05/04 06:45:58;;;;;;;0.30;0.30;;;20.50;66.90;;;;;;5055027;28;20451;-69
2022/05/04 06:48:24;;;;;;;0.30;0.30;;;21.40;65.80;;;;;;5054628;28;20401;-69
2022/05/04 06:50:49;;;;;;;0.30;0.30;;;22.00;63.80;;;;;;5053901;28;20423;-69
2022/05/04 06:53:15;;;;;;;0.30;0.30;;;22.80;60.80;;;;;;5054503;28;20171;-69
2022/05/04 06:55:40;;;;;;;0.30;0.30;;;23.40;61.20;;;;;;5054654;28;20174;-69
2022/05/04 06:58:06;;;;;;;0.30;0.30;;;23.80;59.50;;;;;;5054443;28;20202;-69
2022/05/04 07:00:32;;;;;;;0.30;0.30;;;23.70;59.90;;;;;;5054218;28;20219;-69
2022/05/04 07:02:57;;;;;;;0.30;0.30;;;23.20;57.90;;;;;;5054353;28;20170;-70
2022/05/04 07:05:23;;;;;;;0.40;0.40;;;22.90;61.20;;;;;;5054573;28;20592;-69
2022/05/04 07:07:48;;;;;;;0.30;0.30;;;23.00;62.80;;;;;;5054522;28;20196;-69
2022/05/04 07:10:14;;;;;;;0.30;0.30;;;23.60;62.60;;;;;;5054097;28;20611;-69
2022/05/04 07:12:40;;;;;;;1.83;1.73;;;24.40;62.60;;;;;;5053795;28;20237;-72
2022/05/04 07:15:06;;;;;;;0.30;0.30;;;25.30;56.80;;;;;;5052607;28;20171;-71
2022/05/04 07:17:32;;;;;;;0.30;0.30;;;25.90;54.10;;;;;;5054624;28;20170;-72
2022/05/04 07:19:58;;;;;;;0.30;0.30;;;25.50;54.10;;;;;;5054072;28;20431;-71
2022/05/04 07:22:23;;;;;;;0.30;0.30;;;24.70;54.60;;;;;;5050586;28;20440;-71
2022/05/04 07:24:49;;;;;;;0.30;0.30;;;23.80;55.80;;;;;;5053165;28;20571;-72
2022/05/04 07:27:15;;;;;;;0.30;0.30;;;22.90;56.60;;;;;;5053596;28;20729;-71
2022/05/04 07:29:42;;;;;;;0.30;0.30;;;22.20;57.60;;;;;;5050921;28;20401;-71
2022/05/04 07:32:08;;;;;;;0.30;0.30;;;21.70;58.90;;;;;;5053648;28;20182;-71
2022/05/04 07:34:35;;;;;;;0.30;0.30;;;21.20;59.60;;;;;;5053663;28;20419;-72
2022/05/04 07:37:01;;;;;;;0.80;0.80;;;20.70;61.30;;;;;;5051012;28;20172;-72
2022/05/04 07:42:26;;;;;;;0.40;0.40;;;20.00;61.40;;;;;;5053642;28;20200;-71
2022/05/04 07:45:04;;;;;;;0.50;0.50;;;19.70;62.20;;;;;;5051702;28;20908;-72
2022/05/04 07:47:32;;;;;;;0.30;0.30;;;19.40;62.70;;;;;;5053703;28;20412;-74
2022/05/04 07:49:59;;;;;;;0.30;0.30;;;19.20;65.10;;;;;;5054040;28;20794;-71
2022/05/04 07:52:25;;;;;;;0.40;0.40;;;19.30;65.30;;;;;;5051039;28;20793;-72
2022/05/04 07:54:51;;;;;;;0.30;0.30;;;19.40;64.80;;;;;;5053450;28;20430;-76
2022/05/04 07:57:17;;;;;;;0.53;0.53;;;19.40;65.90;;;;;;5053668;28;20964;-70
2022/05/04 07:59:43;;;;;;;0.30;0.30;;;19.50;68.60;;;;;;5051077;28;20562;-73
2022/05/04 08:04:53;;;;;;;0.30;0.30;;;19.80;67.40;;;;;;5052543;28;20181;-70
2022/05/04 08:07:19;;;;;;;0.30;0.30;;;21.60;63.10;;;;;;5051522;28;20448;-73
2022/05/04 08:09:45;;;;;;;0.40;0.40;;;23.70;57.40;;;;;;5052660;28;20175;-76
2022/05/04 08:12:12;;;;;;;0.63;0.63;;;25.50;53.80;;;;;;5053021;28;20506;-73
2022/05/04 08:14:39;;;;;;;0.30;0.30;;;26.00;51.90;;;;;;5051500;28;20459;-72
2022/05/04 08:17:06;;;;;;;0.30;0.30;;;26.30;49.20;;;;;;5051242;28;20408;-73
2022/05/04 08:19:32;;;;;;;0.50;0.50;;;26.40;49.50;;;;;;5051214;28;20433;-70
2022/05/04 08:21:58;;;;;;;0.40;0.40;;;25.90;49.10;;;;;;5050084;28;20448;-72
2022/05/04 08:24:24;;;;;;;1.23;1.23;;;25.00;48.70;;;;;;5053288;28;20404;-72
2022/05/04 08:26:49;;;;;;;0.40;0.40;;;24.10;50.30;;;;;;5053258;28;20204;-73
2022/05/04 08:29:15;;;;;;;0.37;0.37;;;22.70;52.20;;;;;;5050511;28;20466;-71
2022/05/04 08:31:41;;;;;;;0.70;0.63;;;21.60;54.20;;;;;;5052039;28;20232;-72
2022/05/04 08:34:08;;;;;;;0.40;0.40;;;21.00;54.00;;;;;;5052645;28;20254;-70
2022/05/04 08:36:37;;;;;;;0.30;0.30;;;20.70;55.60;;;;;;5049945;28;20171;-70
2022/05/04 08:39:09;;;;;;;0.30;0.30;;;20.40;55.50;;;;;;5052789;28;20418;-72
2022/05/04 08:41:39;;;;;;;0.30;0.30;;;20.30;55.60;;;;;;5052915;28;20433;-72
2022/05/04 08:44:08;;;;;;;0.60;0.60;;;20.20;55.80;;;;;;5050538;28;20440;-71
2022/05/04 08:46:38;;;;;;;0.30;0.30;;;20.20;56.20;;;;;;5050799;28;20464;-72
2022/05/04 08:49:04;;;;;;;0.57;0.57;;;20.20;57.50;;;;;;5052883;28;20389;-72
2022/05/04 08:51:31;;;;;;;0.30;0.30;;;19.60;57.80;;;;;;5050501;28;20421;-69
2022/05/04 08:53:57;;;;;;;0.60;0.60;;;19.40;59.50;;;;;;5051246;28;20757;-72
2022/05/04 08:56:22;;;;;;;0.50;0.50;;;18.90;59.10;;;;;;5052126;28;20419;-70
2022/05/04 08:58:48;;;;;;;0.50;0.40;;;18.60;62.20;;;;;;5053049;28;20303;-70
2022/05/04 09:01:14;;;;;;;0.30;0.30;;;18.50;67.20;;;;;;5051168;28;20191;-72
2022/05/04 09:03:39;;;;;;;0.30;0.30;;;18.40;66.10;;;;;;5052763;28;20200;-72
2022/05/04 09:06:05;;;;;;;0.40;0.40;;;18.20;70.60;;;;;;5053096;28;20574;-72
2022/05/04 09:08:55;;;;;;;0.40;0.40;;;17.90;69.40;;;;;;5053002;28;20526;-70
2022/05/04 09:11:24;;;;;;;0.30;0.30;;;17.60;68.00;;;;;;5052662;28;20414;-70
2022/05/04 09:13:51;;;;;;;0.40;0.40;;;17.40;69.10;;;;;;5055865;28;20428;-72
2022/05/04 09:16:32;;;;;;;0.40;0.40;;;17.40;73.10;;;;;;5055237;28;20844;-71
2022/05/04 09:19:04;;;;;;;0.57;0.57;;;17.30;74.50;;;;;;5056469;28;20442;-71
2022/05/04 09:21:30;;;;;;;2.13;2.03;;;17.10;77.10;;;;;;5055933;28;20814;-71
2022/05/04 09:23:56;;;;;;;0.30;0.30;;;16.90;80.60;;;;;;5054708;28;20463;-69
2022/05/04 09:26:25;;;;;;;0.30;0.30;;;16.90;80.60;;;;;;5054874;28;20448;-72
2022/05/04 09:28:57;;;;;;;0.30;0.30;;;17.00;80.60;;;;;;5055282;28;20173;-71
2022/05/04 09:31:28;;;;;;;0.30;0.30;;;17.10;82.50;;;;;;5056040;28;20428;-71
2022/05/04 09:33:56;;;;;;;0.30;0.30;;;17.20;82.80;;;;;;5056716;28;20920;-70
2022/05/04 09:36:37;;;;;;;0.30;0.30;;;17.30;80.30;;;;;;5055888;28;20405;-70
2022/05/04 09:45:11;;;;;;;0.40;0.40;;;17.50;78.30;;;;;;5056384;28;20454;-70
2022/05/04 09:47:47;;;;;;;0.30;0.30;;;17.70;79.50;;;;;;5056069;28;20445;-71
2022/05/04 09:50:14;;;;;;;0.30;0.30;;;18.00;77.80;;;;;;5055867;28;20528;-69
2022/05/04 09:52:42;;;;;;;0.30;0.30;;;18.10;76.80;;;;;;5055936;28;20398;-70
2022/05/04 09:55:26;;;;;;;0.40;0.40;;;18.20;75.40;;;;;;5055826;28;20405;-70
2022/05/04 09:57:56;;;;;;;0.30;0.30;;;18.30;75.90;;;;;;5055329;28;20536;-71
2022/05/04 10:00:24;;;;;;;0.30;0.30;;;18.50;76.50;;;;;;5052802;28;20490;-71
2022/05/04 10:02:54;;;;;;;0.30;0.30;;;18.70;78.00;;;;;;5053335;28;20482;-71
2022/05/04 10:05:21;;;;;;;0.30;0.30;;;19.10;76.90;;;;;;5054825;28;20455;-70
2022/05/04 10:07:49;;;;;;;0.30;0.30;;;19.30;74.40;;;;;;5050450;28;20420;-70
2022/05/04 10:10:18;;;;;;;0.40;0.40;;;19.50;73.00;;;;;;5053847;28;20410;-71
2022/05/04 10:12:44;;;;;;;0.70;0.57;;;19.40;71.20;;;;;;5053905;28;20418;-71
2022/05/04 10:15:14;;;;;;;0.30;0.30;;;19.30;70.00;;;;;;5053617;28;20507;-69
2022/05/04 10:18:06;;;;;;;0.30;0.30;;;19.40;71.60;;;;;;5054923;28;20784;-69
2022/05/04 10:20:49;;;;;;;0.40;0.40;;;19.70;71.10;;;;;;5054649;28;20450;-72
2022/05/04 10:23:19;;;;;;;0.30;0.30;;;19.90;69.30;;;;;;5054675;28;20407;-71
2022/05/04 10:25:45;;;;;;;0.40;0.40;;;19.90;74.10;;;;;;5052303;28;20890;-71
2022/05/04 10:28:14;;;;;;;0.30;0.30;;;19.80;73.90;;;;;;5055259;28;20488;-71
2022/05/04 10:30:59;;;;;;;0.30;0.30;;;19.80;75.40;;;;;;5054740;28;20428;-71
2022/05/04 10:33:34;;;;;;;0.30;0.30;;;19.50;72.90;;;;;;5053663;28;20534;-70
2022/05/04 10:36:17;;;;;;;0.63;0.63;;;18.80;66.90;;;;;;5052167;28;20966;-70
2022/05/04 10:38:44;;;;;;;0.30;0.30;;;18.20;65.30;;;;;;5052841;28;20404;-72
2022/05/04 10:41:11;;;;;;;0.30;0.30;;;17.50;67.50;;;;;;5054680;28;20790;-69
2022/05/04 10:43:45;;;;;;;1.00;0.70;;;17.00;68.40;;;;;;5053697;28;20497;-70
2022/05/04 10:46:16;;;;;;;0.30;0.30;;;16.60;70.90;;;;;;5053255;28;20916;-70
2022/05/04 10:49:03;;;;;;;0.30;0.30;;;16.30;69.20;;;;;;5055292;28;20392;-69
2022/05/04 10:51:31;;;;;;;0.60;0.60;;;16.10;70.00;;;;;;5052106;28;20849;-72
2022/05/04 10:54:03;;;;;;;0.40;0.40;;;16.00;70.20;;;;;;5054240;28;20424;-71
2022/05/04 10:56:36;;;;;;;0.30;0.30;;;15.80;70.50;;;;;;5054616;28;20470;-71
2022/05/04 10:59:02;;;;;;;0.30;0.30;;;15.70;72.00;;;;;;5051774;28;20409;-70
2022/05/04 11:01:31;;;;;;;0.30;0.30;;;15.70;72.60;;;;;;5052188;28;20428;-68
2022/05/04 11:04:13;;;;;;;0.60;0.60;;;15.70;73.40;;;;;;5054439;28;20510;-69
2022/05/04 11:06:55;;;;;;;0.60;0.60;;;15.50;73.60;;;;;;5051849;28;20817;-68
2022/05/04 11:09:26;;;;;;;0.60;0.60;;;15.40;75.80;;;;;;5054794;28;20738;-69
2022/05/04 11:11:54;;;;;;;0.30;0.30;;;15.30;74.40;;;;;;5053884;28;20436;-68
2022/05/04 11:14:23;;;;;;;0.40;0.40;;;15.30;77.50;;;;;;5052125;28;20462;-68
2022/05/04 11:16:53;;;;;;;0.40;0.40;;;15.20;76.20;;;;;;5054503;28;20786;-69
2022/05/04 11:19:22;;;;;;;0.30;0.30;;;15.20;75.10;;;;;;5053489;28;20836;-71
2022/05/04 11:21:48;;;;;;;0.30;0.30;;;15.20;81.10;;;;;;5052781;28;20444;-69
2022/05/04 11:24:15;;;;;;;0.30;0.30;;;15.30;84.70;;;;;;5052444;28;20413;-68
2022/05/04 11:26:48;;;;;;;0.30;0.30;;;15.20;80.30;;;;;;5052796;28;20452;-73
2022/05/04 11:29:15;;;;;;;0.30;0.30;;;15.30;78.30;;;;;;5054146;28;20403;-72
2022/05/04 11:32:01;;;;;;;0.30;0.30;;;15.60;79.60;;;;;;5053987;28;20453;-71
2022/05/04 11:34:28;;;;;;;0.40;0.40;;;15.70;75.60;;;;;;5054227;28;20401;-69
2022/05/04 11:36:58;;;;;;;0.30;0.30;;;15.80;76.10;;;;;;5054114;28;20405;-70
2022/05/04 11:39:27;;;;;;;0.30;0.30;;;16.00;76.00;;;;;;5053324;28;20423;-69
2022/05/04 11:41:55;;;;;;;0.80;0.80;;;16.20;74.70;;;;;;5050909;28;20437;-70
2022/05/04 11:44:23;;;;;;;0.30;0.30;;;16.60;74.00;;;;;;5052821;28;20897;-70
2022/05/04 11:46:53;;;;;;;0.30;0.30;;;16.80;76.40;;;;;;5054017;28;20452;-70
2022/05/04 11:49:26;;;;;;;0.30;0.30;;;17.20;72.60;;;;;;5051556;28;20408;-69
2022/05/04 11:51:53;;;;;;;0.40;0.40;;;17.50;71.80;;;;;;5053238;28;20417;-70
2022/05/04 11:54:20;;;;;;;0.57;0.57;;;17.80;72.10;;;;;;5053743;28;20407;-70
2022/05/04 11:56:46;;;;;;;0.40;0.40;;;18.20;69.60;;;;;;5053867;28;20757;-68
2022/05/04 11:59:12;;;;;;;0.30;0.30;;;18.60;69.50;;;;;;5053925;28;20400;-70
2022/05/04 12:01:38;;;;;;;0.30;0.30;;;19.00;66.00;;;;;;5051989;28;20201;-70
2022/05/04 12:04:05;;;;;;;0.30;0.30;;;19.30;67.20;;;;;;5050934;28;20174;-69
2022/05/04 12:06:32;;;;;;;0.30;0.30;;;19.50;64.70;;;;;;5053404;28;20517;-70
2022/05/04 12:08:59;;;;;;;0.30;0.30;;;19.80;60.00;;;;;;5052814;28;20541;-70
2022/05/04 12:11:26;;;;;;;0.60;0.60;;;19.80;59.40;;;;;;5053542;28;20447;-70
2022/05/04 12:13:52;;;;;;;0.30;0.30;;;20.30;60.30;;;;;;5053400;28;20404;-70
2022/05/04 12:16:19;;;;;;;0.30;0.30;;;20.70;58.90;;;;;;5053952;28;20410;-69
2022/05/04 12:18:47;;;;;;;0.30;0.30;;;20.50;54.20;;;;;;5053776;28;20416;-69
2022/05/04 12:21:17;;;;;;;0.30;0.30;;;20.60;54.80;;;;;;5053057;28;20444;-70
2022/05/04 12:23:45;;;;;;;0.50;0.50;;;20.20;55.00;;;;;;5053516;28;20465;-70
2022/05/04 12:26:12;;;;;;;0.70;0.70;;;20.10;51.60;;;;;;5053692;28;20838;-70
2022/05/04 12:28:40;;;;;;;0.40;0.40;;;20.20;52.10;;;;;;5053821;28;20408;-70
2022/05/04 12:33:51;;;;;;;0.63;0.63;;;20.30;51.10;;;;;;5053817;28;20530;-69
2022/05/04 12:36:19;;;;;;;0.30;0.30;;;20.20;53.30;;;;;;5053449;28;20406;-70
2022/05/04 12:38:48;;;;;;;0.40;0.40;;;20.30;52.50;;;;;;5053481;28;20658;-70
2022/05/04 12:41:22;;;;;;;0.30;0.30;;;20.60;51.90;;;;;;5052933;28;20425;-69
2022/05/04 12:43:49;;;;;;;0.30;0.30;;;20.90;51.60;;;;;;5052851;28;20408;-71
2022/05/04 12:46:16;;;;;;;0.40;0.40;;;21.00;49.70;;;;;;5050672;28;20499;-69
2022/05/04 12:48:47;;;;;;;0.87;0.87;;;20.90;51.10;;;;;;5055352;28;20433;-70
2022/05/04 12:51:16;;;;;;;0.30;0.30;;;20.70;51.50;;;;;;5056893;28;20471;-70
2022/05/04 12:53:44;;;;;;;0.30;0.30;;;21.00;52.30;;;;;;5057423;28;20397;-69
2022/05/04 12:58:55;;;;;;;0.50;0.50;;;20.90;51.30;;;;;;5056790;28;20499;-69
2022/05/04 13:01:23;;;;;;;0.30;0.30;;;20.90;49.80;;;;;;5055353;28;20525;-70
2022/05/04 13:03:50;;;;;;;0.30;0.30;;;21.10;51.20;;;;;;5055367;28;20520;-70
2022/05/04 13:06:19;;;;;;;0.30;0.30;;;21.00;49.70;;;;;;5055594;28;20543;-70
2022/05/04 13:08:46;;;;;;;0.30;0.30;;;20.70;50.00;;;;;;5056500;28;20404;-69
2022/05/04 13:11:12;;;;;;;0.30;0.30;;;20.40;55.20;;;;;;5056083;28;20431;-69
2022/05/04 13:13:38;;;;;;;0.40;0.40;;;20.00;53.80;;;;;;5056344;28;20408;-70
2022/05/04 13:16:03;;;;;;;0.30;0.30;;;19.80;53.50;;;;;;5056437;28;20426;-69
2022/05/04 13:18:29;;;;;;;0.57;0.57;;;19.40;54.10;;;;;;5056319;28;20227;-69
2022/05/04 13:20:55;;;;;;;2.00;1.63;;;19.10;53.60;;;;;;5054644;28;20470;-69
2022/05/04 13:23:21;;;;;;;0.30;0.30;;;18.90;54.50;;;;;;5056071;28;20165;-70
2022/05/04 13:25:46;;;;;;;0.50;0.50;;;18.80;55.50;;;;;;5056011;28;20209;-69